createdAt,value
2023-05-14T00:00:48.947Z,13.41
2023-05-14T00:04:10.624Z,13.38
2023-05-14T00:07:37.038Z,13.45
2023-05-14T00:11:01.379Z,13.40
2023-05-14T00:14:27.447Z,13.37
2023-05-14T00:17:49.819Z,13.36
2023-05-14T00:21:11.649Z,13.24
2023-05-14T00:24:35.401Z,13.31
2023-05-14T00:27:56.959Z,13.34
2023-05-14T00:31:18.597Z,13.33
2023-05-14T00:34:42.523Z,13.30
2023-05-14T00:38:04.262Z,13.37
2023-05-14T00:41:25.826Z,13.21
2023-05-14T00:44:49.728Z,13.21
2023-05-14T00:48:11.589Z,13.27
2023-05-14T00:51:34.266Z,13.30
2023-05-14T00:54:56.861Z,13.26
2023-05-14T00:58:19.575Z,13.21
2023-05-14T01:01:43.687Z,13.20
2023-05-14T01:05:06.689Z,13.04
2023-05-14T01:09:10.433Z,13.04
2023-05-14T01:12:43.578Z,13.02
2023-05-14T01:16:09.717Z,13.03
2023-05-14T01:19:43.209Z,12.92
2023-05-14T01:23:07.298Z,13.00
2023-05-14T01:26:32.127Z,12.97
2023-05-14T01:30:04.615Z,12.95
2023-05-14T01:33:29.112Z,12.99
2023-05-14T01:36:57.034Z,13.04
2023-05-14T01:40:21.774Z,13.09
2023-05-14T01:43:47.709Z,13.21
2023-05-14T01:47:09.337Z,13.18
2023-05-14T01:50:30.980Z,13.13
2023-05-14T01:53:52.836Z,13.17
2023-05-14T01:57:14.420Z,13.09
2023-05-14T02:00:36.037Z,12.97
2023-05-14T02:04:01.150Z,12.95
2023-05-14T02:07:22.768Z,12.83
2023-05-14T02:10:44.327Z,12.75
2023-05-14T02:14:06.198Z,12.90
2023-05-14T02:17:30.289Z,12.75
2023-05-14T02:20:54.780Z,12.79
2023-05-14T02:24:16.384Z,12.78
2023-05-14T02:27:40.551Z,12.92
2023-05-14T02:31:02.174Z,12.90
2023-05-14T02:34:24.006Z,12.88
2023-05-14T02:37:45.724Z,12.79
2023-05-14T02:41:07.560Z,12.92
2023-05-14T02:44:29.216Z,12.86
2023-05-14T02:47:50.904Z,12.86
2023-05-14T02:51:12.537Z,12.82
2023-05-14T02:54:34.307Z,12.89
2023-05-14T02:57:56.881Z,12.89
2023-05-14T03:01:21.204Z,12.93
2023-05-14T03:04:46.763Z,12.96
2023-05-14T03:08:08.464Z,13.06
2023-05-14T03:11:30.084Z,13.26
2023-05-14T03:14:51.950Z,13.16
2023-05-14T03:18:14.248Z,13.21
2023-05-14T03:21:36.204Z,13.13
2023-05-14T03:25:00.836Z,13.33
2023-05-14T03:28:27.281Z,13.26
2023-05-14T03:31:54.579Z,13.24
2023-05-14T03:35:16.440Z,13.21
2023-05-14T03:38:40.741Z,13.18
2023-05-14T03:42:04.751Z,13.10
2023-05-14T03:45:30.411Z,13.27
2023-05-14T03:48:54.477Z,12.88
2023-05-14T03:52:16.151Z,12.96
2023-05-14T03:55:40.328Z,12.89
2023-05-14T03:59:04.886Z,12.93
2023-05-14T04:02:28.940Z,12.88
2023-05-14T04:05:51.137Z,12.86
2023-05-14T04:09:15.036Z,12.86
2023-05-14T04:12:36.606Z,12.92
2023-05-14T04:15:58.499Z,12.95
2023-05-14T04:19:22.511Z,13.00
2023-05-14T04:22:44.443Z,13.06
2023-05-14T04:26:06.478Z,12.99
2023-05-14T04:29:28.099Z,12.97
2023-05-14T04:32:49.840Z,12.97
2023-05-14T04:36:11.450Z,12.95
2023-05-14T04:39:33.024Z,12.92
2023-05-14T04:42:56.686Z,12.88
2023-05-14T04:46:18.398Z,12.89
2023-05-14T04:49:40.063Z,12.97
2023-05-14T04:53:01.721Z,12.96
2023-05-14T04:56:25.961Z,12.89
2023-05-14T04:59:47.597Z,12.92
2023-05-14T05:03:11.700Z,12.96
2023-05-14T05:06:35.582Z,13.00
2023-05-14T05:09:57.194Z,12.97
2023-05-14T05:13:21.290Z,12.90
2023-05-14T05:16:43.349Z,12.95
2023-05-14T05:20:08.065Z,13.00
2023-05-14T05:23:32.042Z,13.06
2023-05-14T05:26:55.714Z,12.96
2023-05-14T05:30:19.785Z,13.00
2023-05-14T05:33:43.922Z,13.02
2023-05-14T05:37:06.221Z,13.00
2023-05-14T05:40:30.027Z,12.99
2023-05-14T05:43:51.615Z,12.93
2023-05-14T05:47:13.208Z,13.03
2023-05-14T05:50:37.784Z,13.07
2023-05-14T05:53:59.371Z,13.11
2023-05-14T05:57:27.228Z,13.03
2023-05-14T06:00:48.887Z,12.97
2023-05-14T06:04:10.520Z,13.21
2023-05-14T06:07:35.068Z,13.24
2023-05-14T06:10:59.389Z,13.17
2023-05-14T06:14:20.930Z,13.10
2023-05-14T06:17:45.136Z,13.02
2023-05-14T06:21:06.758Z,13.14
2023-05-14T06:24:28.746Z,13.11
2023-05-14T06:27:50.425Z,13.14
2023-05-14T06:31:14.226Z,13.14
2023-05-14T06:34:37.989Z,13.09
2023-05-14T06:37:59.691Z,13.14
2023-05-14T06:41:23.554Z,13.13
2023-05-14T06:44:45.809Z,13.20
2023-05-14T06:48:07.630Z,13.21
2023-05-14T06:51:33.863Z,13.26
2023-05-14T06:54:55.469Z,13.31
2023-05-14T06:58:21.792Z,13.28
2023-05-14T07:01:43.478Z,13.40
2023-05-14T07:05:05.584Z,13.45
2023-05-14T07:08:29.234Z,13.33
2023-05-14T07:11:50.836Z,13.48
2023-05-14T07:15:17.356Z,13.72
2023-05-14T07:18:41.357Z,14.05
2023-05-14T07:22:05.584Z,14.31
2023-05-14T07:25:27.699Z,14.51
2023-05-14T07:28:51.606Z,14.75
2023-05-14T07:32:15.469Z,14.78
2023-05-14T07:35:39.559Z,14.71
2023-05-14T07:39:03.521Z,14.52
2023-05-14T07:42:35.353Z,14.48
2023-05-14T07:45:58.622Z,14.33
2023-05-14T07:49:22.404Z,14.29
2023-05-14T07:52:47.245Z,14.14
2023-05-14T07:56:11.148Z,14.16
2023-05-14T07:59:35.325Z,14.26
2023-05-14T08:02:59.813Z,14.27
2023-05-14T08:06:24.426Z,14.27
2023-05-14T08:09:45.982Z,14.22
2023-05-14T08:13:07.682Z,14.27
2023-05-14T08:16:31.515Z,14.19
2023-05-14T08:19:56.728Z,14.30
2023-05-14T08:23:18.284Z,14.20
2023-05-14T08:26:42.371Z,14.22
2023-05-14T08:30:07.419Z,14.51
2023-05-14T08:33:29.075Z,15.29
2023-05-14T08:36:51.009Z,15.75
2023-05-14T08:40:13.113Z,16.00
2023-05-14T08:43:46.072Z,16.12
2023-05-14T08:47:07.678Z,16.11
2023-05-14T08:50:30.645Z,15.58
2023-05-14T08:53:55.171Z,15.43
2023-05-14T08:57:23.753Z,15.37
2023-05-14T09:00:47.891Z,15.25
2023-05-14T09:04:12.499Z,14.96
2023-05-14T09:07:34.330Z,14.91
2023-05-14T09:10:58.206Z,14.92
2023-05-14T09:14:23.456Z,14.92
2023-05-14T09:17:47.998Z,14.85
2023-05-14T09:21:10.039Z,14.84
2023-05-14T09:24:31.662Z,14.78
2023-05-14T09:27:57.277Z,15.09
2023-05-14T09:31:22.923Z,15.43
2023-05-14T09:34:48.004Z,15.63
2023-05-14T09:38:09.572Z,15.87
2023-05-14T09:41:33.533Z,15.94
2023-05-14T09:44:55.189Z,16.12
2023-05-14T09:48:17.388Z,16.12
2023-05-14T09:51:39.111Z,16.46
2023-05-14T09:55:01.462Z,16.11
2023-05-14T09:58:23.133Z,15.84
2023-05-14T10:01:47.516Z,15.60
2023-05-14T10:05:09.778Z,15.40
2023-05-14T10:08:35.397Z,15.29
2023-05-14T10:12:01.234Z,15.12
2023-05-14T10:15:45.926Z,15.00
2023-05-14T10:19:14.882Z,15.08
2023-05-14T10:22:39.712Z,15.08
2023-05-14T10:26:01.889Z,15.39
2023-05-14T10:29:38.237Z,15.84
2023-05-14T10:33:10.034Z,16.29
2023-05-14T10:36:32.534Z,16.66
2023-05-14T10:39:57.839Z,16.45
2023-05-14T10:43:25.135Z,16.15
2023-05-14T10:46:49.298Z,15.81
2023-05-14T10:50:12.781Z,15.64
2023-05-14T10:53:39.261Z,15.36
2023-05-14T10:57:01.418Z,15.30
2023-05-14T11:00:27.805Z,15.36
2023-05-14T11:03:53.342Z,15.32
2023-05-14T11:07:18.061Z,15.25
2023-05-14T11:10:39.720Z,15.10
2023-05-14T11:14:03.643Z,15.12
2023-05-14T11:17:31.759Z,15.06
2023-05-14T11:20:53.603Z,14.85
2023-05-14T11:24:17.813Z,14.87
2023-05-14T11:27:39.514Z,14.85
2023-05-14T11:31:01.700Z,14.85
2023-05-14T11:34:23.385Z,14.84
2023-05-14T11:37:51.661Z,14.85
2023-05-14T11:41:15.105Z,14.82
2023-05-14T11:44:36.735Z,14.93
2023-05-14T11:47:58.311Z,14.79
2023-05-14T11:51:25.436Z,14.79
2023-05-14T11:54:49.688Z,14.72
2023-05-14T11:58:14.201Z,14.75
2023-05-14T12:01:38.754Z,14.78
2023-05-14T12:05:01.082Z,14.84
2023-05-14T12:08:27.430Z,14.58
2023-05-14T12:11:51.245Z,14.36
2023-05-14T12:15:19.146Z,14.38
2023-05-14T12:18:43.122Z,14.45
2023-05-14T12:22:04.980Z,14.43
2023-05-14T12:25:31.650Z,14.41
2023-05-14T12:29:06.995Z,14.29
2023-05-14T12:32:32.204Z,14.36
2023-05-14T12:35:54.309Z,14.44
2023-05-14T12:39:18.232Z,14.54
2023-05-14T12:42:39.980Z,14.43
2023-05-14T12:46:01.636Z,14.38
2023-05-14T12:49:23.232Z,14.34
2023-05-14T12:52:44.883Z,14.33
2023-05-14T12:56:09.675Z,14.48
2023-05-14T12:59:33.477Z,14.45
2023-05-14T13:02:55.112Z,14.29
2023-05-14T13:06:16.949Z,14.31
2023-05-14T13:09:38.543Z,14.29
2023-05-14T13:13:02.647Z,14.26
2023-05-14T13:16:28.305Z,14.23
2023-05-14T13:19:49.983Z,14.23
2023-05-14T13:23:11.620Z,14.19
2023-05-14T13:26:33.634Z,14.19
2023-05-14T13:29:55.529Z,14.19
2023-05-14T13:33:17.513Z,14.22
2023-05-14T13:36:43.582Z,14.24
2023-05-14T13:40:09.075Z,14.23
2023-05-14T13:43:31.923Z,14.22
2023-05-14T13:46:53.829Z,14.20
2023-05-14T13:50:15.508Z,14.23
2023-05-14T13:53:37.122Z,14.24
2023-05-14T13:57:01.195Z,14.16
2023-05-14T14:00:22.975Z,14.14
2023-05-14T14:03:44.571Z,14.06
2023-05-14T14:07:09.115Z,14.10
2023-05-14T14:10:31.079Z,14.12
2023-05-14T14:13:53.048Z,14.16
2023-05-14T14:17:14.656Z,14.20
2023-05-14T14:20:38.852Z,14.19
2023-05-14T14:24:02.820Z,14.13
2023-05-14T14:27:24.559Z,14.12
2023-05-14T14:30:46.237Z,14.03
2023-05-14T14:34:10.333Z,14.08
2023-05-14T14:37:31.909Z,13.90
2023-05-14T14:40:56.076Z,13.92
2023-05-14T14:44:20.294Z,13.89
2023-05-14T14:47:51.299Z,13.96
2023-05-14T14:51:15.482Z,13.83
2023-05-14T14:54:42.001Z,13.85
2023-05-14T14:58:05.844Z,13.76
2023-05-14T15:01:29.793Z,13.78
2023-05-14T15:04:54.544Z,13.64
2023-05-14T15:08:16.166Z,13.57
2023-05-14T15:11:40.709Z,13.44
2023-05-14T15:15:04.788Z,13.51
2023-05-14T15:18:26.474Z,13.45
2023-05-14T15:21:52.616Z,13.38
2023-05-14T15:25:14.156Z,13.30
2023-05-14T15:28:39.276Z,13.24
2023-05-14T15:32:03.447Z,13.17
2023-05-14T15:35:25.884Z,13.17
2023-05-14T15:38:50.123Z,13.14
2023-05-14T15:42:11.780Z,13.13
2023-05-14T15:45:33.478Z,13.20
2023-05-14T15:48:57.404Z,13.20
2023-05-14T15:52:19.075Z,13.14
2023-05-14T15:55:40.710Z,13.09
2023-05-14T15:59:02.300Z,13.07
2023-05-14T16:02:26.265Z,13.20
2023-05-14T16:05:48.596Z,13.16
2023-05-14T16:09:12.733Z,13.23
2023-05-14T16:12:39.269Z,13.18
2023-05-14T16:16:01.430Z,13.20
2023-05-14T16:19:25.892Z,13.13
2023-05-14T16:22:47.478Z,13.24
2023-05-14T16:26:11.562Z,13.30
2023-05-14T16:29:33.481Z,13.27
2023-05-14T16:32:55.134Z,13.26
2023-05-14T16:36:17.575Z,13.31
2023-05-14T16:39:41.423Z,13.27
2023-05-14T16:43:03.016Z,13.34
2023-05-14T16:46:29.486Z,13.23
2023-05-14T16:49:53.654Z,13.37
2023-05-14T16:53:15.380Z,13.34
2023-05-14T16:56:37.114Z,13.40
2023-05-14T17:00:01.175Z,13.28
2023-05-14T17:03:22.914Z,13.34
2023-05-14T17:06:48.357Z,13.41
2023-05-14T17:10:10.430Z,13.34
2023-05-14T17:13:33.100Z,13.37
2023-05-14T17:16:56.990Z,13.33
2023-05-14T17:20:18.668Z,13.30
2023-05-14T17:23:42.333Z,13.26
2023-05-14T17:27:04.189Z,13.37
2023-05-14T17:30:26.786Z,13.33
2023-05-14T17:33:48.358Z,13.34
2023-05-14T17:37:10.225Z,13.26
2023-05-14T17:40:31.860Z,13.18
2023-05-14T17:43:55.708Z,13.17
2023-05-14T17:47:20.251Z,13.10
2023-05-14T17:50:43.217Z,13.16
2023-05-14T17:54:04.811Z,13.21
2023-05-14T17:57:30.995Z,13.27
2023-05-14T18:00:55.369Z,13.30
2023-05-14T18:04:17.009Z,13.36
2023-05-14T18:07:40.954Z,13.33
2023-05-14T18:11:04.890Z,13.40
2023-05-14T18:14:26.521Z,13.41
2023-05-14T18:17:48.212Z,13.44
2023-05-14T18:21:09.856Z,13.38
2023-05-14T18:24:33.565Z,13.41
2023-05-14T18:27:55.263Z,13.41
2023-05-14T18:31:17.016Z,13.30
2023-05-14T18:34:38.611Z,13.38
2023-05-14T18:38:00.777Z,13.38
2023-05-14T18:41:24.818Z,13.37
2023-05-14T18:44:46.463Z,13.44
2023-05-14T18:48:10.760Z,13.55
2023-05-14T18:51:32.480Z,13.43
2023-05-14T18:54:54.973Z,13.43
2023-05-14T18:58:17.647Z,13.48
2023-05-14T19:01:39.486Z,13.55
2023-05-14T19:05:03.781Z,13.48
2023-05-14T19:08:27.592Z,13.51
2023-05-14T19:11:51.696Z,13.47
2023-05-14T19:15:15.903Z,13.45
2023-05-14T19:18:37.625Z,13.55
2023-05-14T19:21:59.274Z,13.62
2023-05-14T19:25:20.866Z,13.53
2023-05-14T19:28:42.639Z,13.53
2023-05-14T19:32:09.725Z,13.58
2023-05-14T19:35:33.815Z,13.61
2023-05-14T19:38:58.897Z,13.59
2023-05-14T19:42:24.768Z,13.58
2023-05-14T19:45:49.188Z,13.53
2023-05-14T19:49:10.873Z,13.64
2023-05-14T19:52:35.098Z,14.34
2023-05-14T19:56:01.934Z,14.93
2023-05-14T19:59:24.844Z,15.40
2023-05-14T20:02:47.972Z,15.19
2023-05-14T20:06:10.963Z,15.32
2023-05-14T20:09:32.556Z,15.37
2023-05-14T20:12:58.811Z,15.49
2023-05-14T20:16:23.459Z,15.33
2023-05-14T20:19:45.201Z,14.98
2023-05-14T20:23:09.050Z,14.52
2023-05-14T20:26:30.629Z,14.31
2023-05-14T20:29:54.347Z,14.13
2023-05-14T20:33:18.384Z,13.98
2023-05-14T20:36:40.255Z,14.01
2023-05-14T20:40:06.737Z,13.92
2023-05-14T20:43:28.427Z,14.02
2023-05-14T20:46:52.675Z,13.90
2023-05-14T20:50:14.506Z,14.10
2023-05-14T20:53:39.233Z,14.29
2023-05-14T20:57:03.092Z,14.43
2023-05-14T21:00:24.860Z,14.29
2023-05-14T21:03:46.597Z,14.20
2023-05-14T21:07:10.849Z,14.24
2023-05-14T21:10:32.433Z,14.13
2023-05-14T21:13:56.231Z,14.03
2023-05-14T21:17:22.478Z,13.96
2023-05-14T21:20:44.120Z,13.90
2023-05-14T21:24:06.275Z,13.82
2023-05-14T21:27:28.015Z,13.85
2023-05-14T21:30:51.004Z,13.72
2023-05-14T21:34:12.930Z,13.62
2023-05-14T21:37:34.553Z,13.64
2023-05-14T21:41:00.099Z,13.59
2023-05-14T21:44:22.207Z,13.71
2023-05-14T21:47:48.673Z,13.68
2023-05-14T21:51:12.750Z,13.76
2023-05-14T21:54:34.335Z,13.78
2023-05-14T21:57:56.137Z,13.71
2023-05-14T22:01:17.839Z,13.66
2023-05-14T22:04:41.882Z,13.68
2023-05-14T22:08:03.533Z,13.64
2023-05-14T22:11:30.161Z,13.59
2023-05-14T22:14:51.782Z,13.57
2023-05-14T22:18:15.782Z,13.50
2023-05-14T22:21:39.454Z,13.61
2023-05-14T22:25:01.351Z,13.59
2023-05-14T22:28:25.340Z,13.62
2023-05-14T22:31:49.927Z,13.68
2023-05-14T22:35:12.010Z,13.68
2023-05-14T22:38:38.412Z,13.65
2023-05-14T22:42:00.783Z,13.61
2023-05-14T22:45:22.558Z,13.54
2023-05-14T22:48:49.341Z,13.58
2023-05-14T22:52:13.239Z,13.65
2023-05-14T22:55:37.344Z,13.61
2023-05-14T22:59:01.310Z,13.61
2023-05-14T23:02:25.569Z,13.57
2023-05-14T23:05:47.180Z,13.64
2023-05-14T23:09:10.901Z,13.78
2023-05-14T23:12:32.538Z,13.75
2023-05-14T23:15:54.273Z,13.72
2023-05-14T23:19:16.057Z,13.75
2023-05-14T23:22:38.011Z,13.69
2023-05-14T23:25:59.818Z,13.71
2023-05-14T23:29:24.409Z,13.78
2023-05-14T23:32:46.065Z,13.57
2023-05-14T23:36:11.508Z,13.55
2023-05-14T23:39:37.929Z,13.64
2023-05-14T23:43:00.835Z,13.68
2023-05-14T23:46:24.734Z,13.71
2023-05-14T23:49:46.414Z,13.75
2023-05-14T23:53:10.238Z,13.82
2023-05-14T23:56:32.019Z,13.79
2023-05-14T23:59:53.598Z,13.86
